sensor_id;sensor_type;location;lat;lon;timestamp;temperature;humidity
16287;DHT22;8251;53.568;10.018;2022-11-28T00:01:16;9.10;86.10
16287;DHT22;8251;53.568;10.018;2022-11-28T00:03:44;9.10;85.70
16287;DHT22;8251;53.568;10.018;2022-11-28T00:06:11;9.00;85.80
16287;DHT22;8251;53.568;10.018;2022-11-28T00:08:38;9.00;85.90
16287;DHT22;8251;53.568;10.018;2022-11-28T00:11:06;8.90;87.00
16287;DHT22;8251;53.568;10.018;2022-11-28T00:13:34;9.00;86.40
16287;DHT22;8251;53.568;10.018;2022-11-28T00:16:04;9.10;86.20
16287;DHT22;8251;53.568;10.018;2022-11-28T00:18:33;9.10;85.90
16287;DHT22;8251;53.568;10.018;2022-11-28T00:21:00;9.10;85.70
16287;DHT22;8251;53.568;10.018;2022-11-28T00:23:28;9.10;85.40
16287;DHT22;8251;53.568;10.018;2022-11-28T00:25:57;9.00;85.60
16287;DHT22;8251;53.568;10.018;2022-11-28T00:28:24;9.00;85.80
16287;DHT22;8251;53.568;10.018;2022-11-28T00:30:51;9.00;85.80
16287;DHT22;8251;53.568;10.018;2022-11-28T00:33:18;9.00;85.80
16287;DHT22;8251;53.568;10.018;2022-11-28T00:35:47;9.00;85.80
16287;DHT22;8251;53.568;10.018;2022-11-28T00:38:14;8.90;86.00
16287;DHT22;8251;53.568;10.018;2022-11-28T00:40:41;8.90;86.00
16287;DHT22;8251;53.568;10.018;2022-11-28T00:43:08;8.90;86.00
16287;DHT22;8251;53.568;10.018;2022-11-28T00:45:36;9.00;85.90
16287;DHT22;8251;53.568;10.018;2022-11-28T00:48:03;9.00;85.80
16287;DHT22;8251;53.568;10.018;2022-11-28T00:50:30;9.10;85.80
16287;DHT22;8251;53.568;10.018;2022-11-28T00:52:59;9.10;85.70
16287;DHT22;8251;53.568;10.018;2022-11-28T00:55:26;9.00;85.20
16287;DHT22;8251;53.568;10.018;2022-11-28T00:57:53;9.00;85.50
16287;DHT22;8251;53.568;10.018;2022-11-28T01:00:20;9.00;85.00
16287;DHT22;8251;53.568;10.018;2022-11-28T01:02:47;9.00;85.10
16287;DHT22;8251;53.568;10.018;2022-11-28T01:05:15;9.00;85.20
16287;DHT22;8251;53.568;10.018;2022-11-28T01:07:42;9.00;85.40
16287;DHT22;8251;53.568;10.018;2022-11-28T01:10:11;9.00;85.60
16287;DHT22;8251;53.568;10.018;2022-11-28T01:12:37;9.00;85.40
16287;DHT22;8251;53.568;10.018;2022-11-28T01:15:07;9.00;85.30
16287;DHT22;8251;53.568;10.018;2022-11-28T01:17:34;9.10;85.10
16287;DHT22;8251;53.568;10.018;2022-11-28T01:20:05;9.10;85.10
16287;DHT22;8251;53.568;10.018;2022-11-28T01:22:42;9.10;85.10
16287;DHT22;8251;53.568;10.018;2022-11-28T01:25:16;9.10;85.10
16287;DHT22;8251;53.568;10.018;2022-11-28T01:27:42;9.10;85.00
16287;DHT22;8251;53.568;10.018;2022-11-28T01:30:11;9.10;84.60
16287;DHT22;8251;53.568;10.018;2022-11-28T01:32:38;9.00;84.70
16287;DHT22;8251;53.568;10.018;2022-11-28T01:35:05;9.00;84.90
16287;DHT22;8251;53.568;10.018;2022-11-28T01:37:32;8.90;85.00
16287;DHT22;8251;53.568;10.018;2022-11-28T01:39:59;9.00;85.10
16287;DHT22;8251;53.568;10.018;2022-11-28T01:42:27;9.00;85.10
16287;DHT22;8251;53.568;10.018;2022-11-28T01:45:06;8.90;85.00
16287;DHT22;8251;53.568;10.018;2022-11-28T01:47:34;8.90;85.40
16287;DHT22;8251;53.568;10.018;2022-11-28T01:50:03;8.80;85.50
16287;DHT22;8251;53.568;10.018;2022-11-28T01:52:31;8.70;85.60
16287;DHT22;8251;53.568;10.018;2022-11-28T01:54:59;8.80;85.80
16287;DHT22;8251;53.568;10.018;2022-11-28T01:57:29;8.80;85.70
16287;DHT22;8251;53.568;10.018;2022-11-28T02:00:00;8.80;85.70
16287;DHT22;8251;53.568;10.018;2022-11-28T02:02:32;8.80;85.60
16287;DHT22;8251;53.568;10.018;2022-11-28T02:05:02;8.80;85.50
16287;DHT22;8251;53.568;10.018;2022-11-28T02:07:30;8.80;85.40
16287;DHT22;8251;53.568;10.018;2022-11-28T02:09:59;8.80;85.60
16287;DHT22;8251;53.568;10.018;2022-11-28T02:12:44;8.80;86.00
16287;DHT22;8251;53.568;10.018;2022-11-28T02:15:26;8.80;85.80
16287;DHT22;8251;53.568;10.018;2022-11-28T02:18:10;8.80;86.00
16287;DHT22;8251;53.568;10.018;2022-11-28T02:21:02;8.70;86.10
16287;DHT22;8251;53.568;10.018;2022-11-28T02:23:47;8.70;86.40
16287;DHT22;8251;53.568;10.018;2022-11-28T02:26:40;8.70;86.40
16287;DHT22;8251;53.568;10.018;2022-11-28T02:32:37;8.80;86.60
16287;DHT22;8251;53.568;10.018;2022-11-28T02:35:10;8.80;86.30
16287;DHT22;8251;53.568;10.018;2022-11-28T02:37:45;8.70;86.30
16287;DHT22;8251;53.568;10.018;2022-11-28T02:40:20;8.70;86.30
16287;DHT22;8251;53.568;10.018;2022-11-28T02:42:55;8.60;86.40
16287;DHT22;8251;53.568;10.018;2022-11-28T02:45:30;8.70;86.20
16287;DHT22;8251;53.568;10.018;2022-11-28T02:48:03;8.60;86.20
16287;DHT22;8251;53.568;10.018;2022-11-28T02:50:34;8.70;85.90
16287;DHT22;8251;53.568;10.018;2022-11-28T02:53:06;8.70;85.80
16287;DHT22;8251;53.568;10.018;2022-11-28T02:55:37;8.70;86.20
16287;DHT22;8251;53.568;10.018;2022-11-28T02:58:06;8.80;86.00
16287;DHT22;8251;53.568;10.018;2022-11-28T03:00:35;8.80;85.40
16287;DHT22;8251;53.568;10.018;2022-11-28T03:03:23;8.80;85.30
16287;DHT22;8251;53.568;10.018;2022-11-28T03:05:58;8.90;85.00
16287;DHT22;8251;53.568;10.018;2022-11-28T03:08:38;8.80;84.80
16287;DHT22;8251;53.568;10.018;2022-11-28T03:11:14;8.80;84.40
16287;DHT22;8251;53.568;10.018;2022-11-28T03:13:51;8.80;84.70
16287;DHT22;8251;53.568;10.018;2022-11-28T03:16:25;8.70;84.50
16287;DHT22;8251;53.568;10.018;2022-11-28T03:19:00;8.70;84.50
16287;DHT22;8251;53.568;10.018;2022-11-28T03:21:37;8.80;84.70
16287;DHT22;8251;53.568;10.018;2022-11-28T03:24:09;8.80;84.60
16287;DHT22;8251;53.568;10.018;2022-11-28T03:26:46;8.80;84.50
16287;DHT22;8251;53.568;10.018;2022-11-28T03:29:20;8.80;84.50
16287;DHT22;8251;53.568;10.018;2022-11-28T03:31:50;8.80;83.90
16287;DHT22;8251;53.568;10.018;2022-11-28T03:34:23;8.80;83.80
16287;DHT22;8251;53.568;10.018;2022-11-28T03:36:56;8.80;83.80
16287;DHT22;8251;53.568;10.018;2022-11-28T03:39:28;8.80;83.80
16287;DHT22;8251;53.568;10.018;2022-11-28T03:42:01;8.70;83.60
16287;DHT22;8251;53.568;10.018;2022-11-28T03:44:34;8.80;83.60
16287;DHT22;8251;53.568;10.018;2022-11-28T03:47:05;8.80;82.90
16287;DHT22;8251;53.568;10.018;2022-11-28T03:49:37;8.70;83.10
16287;DHT22;8251;53.568;10.018;2022-11-28T03:52:06;8.70;82.90
16287;DHT22;8251;53.568;10.018;2022-11-28T03:54:40;8.70;83.10
16287;DHT22;8251;53.568;10.018;2022-11-28T03:57:13;8.80;82.90
16287;DHT22;8251;53.568;10.018;2022-11-28T03:59:45;8.60;82.60
16287;DHT22;8251;53.568;10.018;2022-11-28T04:02:19;8.60;83.30
16287;DHT22;8251;53.568;10.018;2022-11-28T04:04:54;8.60;83.60
16287;DHT22;8251;53.568;10.018;2022-11-28T04:07:27;8.60;83.50
16287;DHT22;8251;53.568;10.018;2022-11-28T04:10:01;8.60;83.60
16287;DHT22;8251;53.568;10.018;2022-11-28T04:12:36;8.70;84.00
16287;DHT22;8251;53.568;10.018;2022-11-28T04:15:10;8.70;83.80
16287;DHT22;8251;53.568;10.018;2022-11-28T04:17:46;8.70;83.60
16287;DHT22;8251;53.568;10.018;2022-11-28T04:20:23;8.70;83.80
16287;DHT22;8251;53.568;10.018;2022-11-28T04:22:54;8.70;83.60
16287;DHT22;8251;53.568;10.018;2022-11-28T04:25:27;8.60;83.70
16287;DHT22;8251;53.568;10.018;2022-11-28T04:28:07;8.60;83.80
16287;DHT22;8251;53.568;10.018;2022-11-28T04:30:49;8.70;84.00
16287;DHT22;8251;53.568;10.018;2022-11-28T04:33:21;8.60;84.30
16287;DHT22;8251;53.568;10.018;2022-11-28T04:35:52;8.50;84.30
16287;DHT22;8251;53.568;10.018;2022-11-28T04:38:22;8.50;84.50
16287;DHT22;8251;53.568;10.018;2022-11-28T04:40:54;8.50;84.50
16287;DHT22;8251;53.568;10.018;2022-11-28T04:43:28;8.50;84.70
16287;DHT22;8251;53.568;10.018;2022-11-28T04:46:02;8.50;84.70
16287;DHT22;8251;53.568;10.018;2022-11-28T04:48:29;8.50;84.80
16287;DHT22;8251;53.568;10.018;2022-11-28T04:51:05;8.40;84.70
16287;DHT22;8251;53.568;10.018;2022-11-28T04:53:40;8.40;84.70
16287;DHT22;8251;53.568;10.018;2022-11-28T04:56:15;8.40;84.50
16287;DHT22;8251;53.568;10.018;2022-11-28T04:58:45;8.50;84.60
16287;DHT22;8251;53.568;10.018;2022-11-28T05:01:18;8.50;84.30
16287;DHT22;8251;53.568;10.018;2022-11-28T05:03:45;8.60;84.00
16287;DHT22;8251;53.568;10.018;2022-11-28T05:06:24;8.50;83.80
16287;DHT22;8251;53.568;10.018;2022-11-28T05:08:51;8.50;84.00
16287;DHT22;8251;53.568;10.018;2022-11-28T05:11:18;8.50;84.10
16287;DHT22;8251;53.568;10.018;2022-11-28T05:13:45;8.60;84.40
16287;DHT22;8251;53.568;10.018;2022-11-28T05:16:13;8.60;84.10
16287;DHT22;8251;53.568;10.018;2022-11-28T05:18:40;8.60;83.90
16287;DHT22;8251;53.568;10.018;2022-11-28T05:21:07;8.60;84.30
16287;DHT22;8251;53.568;10.018;2022-11-28T05:23:36;8.70;84.40
16287;DHT22;8251;53.568;10.018;2022-11-28T05:26:05;8.70;84.20
16287;DHT22;8251;53.568;10.018;2022-11-28T05:28:32;8.70;84.20
16287;DHT22;8251;53.568;10.018;2022-11-28T05:31:00;8.80;84.30
16287;DHT22;8251;53.568;10.018;2022-11-28T05:33:28;8.80;84.40
16287;DHT22;8251;53.568;10.018;2022-11-28T05:35:55;8.70;83.70
16287;DHT22;8251;53.568;10.018;2022-11-28T05:38:22;8.70;84.00
16287;DHT22;8251;53.568;10.018;2022-11-28T05:40:50;8.70;84.20
16287;DHT22;8251;53.568;10.018;2022-11-28T05:43:22;8.70;83.90
16287;DHT22;8251;53.568;10.018;2022-11-28T05:45:55;8.60;84.00
16287;DHT22;8251;53.568;10.018;2022-11-28T05:48:23;8.70;84.40
16287;DHT22;8251;53.568;10.018;2022-11-28T05:50:50;8.70;84.30
16287;DHT22;8251;53.568;10.018;2022-11-28T05:53:18;8.70;84.20
16287;DHT22;8251;53.568;10.018;2022-11-28T05:55:46;8.70;84.00
16287;DHT22;8251;53.568;10.018;2022-11-28T05:58:14;8.60;84.00
16287;DHT22;8251;53.568;10.018;2022-11-28T06:00:41;8.60;83.80
16287;DHT22;8251;53.568;10.018;2022-11-28T06:03:08;8.60;83.90
16287;DHT22;8251;53.568;10.018;2022-11-28T06:05:38;8.60;84.20
16287;DHT22;8251;53.568;10.018;2022-11-28T06:08:06;8.50;84.20
16287;DHT22;8251;53.568;10.018;2022-11-28T06:10:33;8.50;84.50
16287;DHT22;8251;53.568;10.018;2022-11-28T06:13:01;8.50;84.30
16287;DHT22;8251;53.568;10.018;2022-11-28T06:15:30;8.50;84.40
16287;DHT22;8251;53.568;10.018;2022-11-28T06:17:57;8.50;84.00
16287;DHT22;8251;53.568;10.018;2022-11-28T06:20:24;8.60;83.60
16287;DHT22;8251;53.568;10.018;2022-11-28T06:22:51;8.50;83.50
16287;DHT22;8251;53.568;10.018;2022-11-28T06:25:18;8.50;83.40
16287;DHT22;8251;53.568;10.018;2022-11-28T06:27:45;8.50;83.40
16287;DHT22;8251;53.568;10.018;2022-11-28T06:30:13;8.50;83.50
16287;DHT22;8251;53.568;10.018;2022-11-28T06:32:41;8.50;83.60
16287;DHT22;8251;53.568;10.018;2022-11-28T06:35:08;8.60;83.30
16287;DHT22;8251;53.568;10.018;2022-11-28T06:37:35;8.60;83.00
16287;DHT22;8251;53.568;10.018;2022-11-28T06:40:02;8.50;82.70
16287;DHT22;8251;53.568;10.018;2022-11-28T06:42:30;8.50;83.00
16287;DHT22;8251;53.568;10.018;2022-11-28T06:44:57;8.50;82.90
16287;DHT22;8251;53.568;10.018;2022-11-28T06:47:23;8.50;83.10
16287;DHT22;8251;53.568;10.018;2022-11-28T06:49:52;8.50;82.90
16287;DHT22;8251;53.568;10.018;2022-11-28T06:52:18;8.50;82.90
16287;DHT22;8251;53.568;10.018;2022-11-28T06:54:45;8.50;82.90
16287;DHT22;8251;53.568;10.018;2022-11-28T06:57:12;8.50;83.10
16287;DHT22;8251;53.568;10.018;2022-11-28T06:59:40;8.50;83.10
16287;DHT22;8251;53.568;10.018;2022-11-28T07:02:08;8.50;82.80
16287;DHT22;8251;53.568;10.018;2022-11-28T07:04:36;8.60;82.90
16287;DHT22;8251;53.568;10.018;2022-11-28T07:07:05;8.60;82.70
16287;DHT22;8251;53.568;10.018;2022-11-28T07:09:32;8.60;82.50
16287;DHT22;8251;53.568;10.018;2022-11-28T07:11:59;8.60;83.40
16287;DHT22;8251;53.568;10.018;2022-11-28T07:14:25;8.70;82.60
16287;DHT22;8251;53.568;10.018;2022-11-28T07:16:52;8.70;82.90
16287;DHT22;8251;53.568;10.018;2022-11-28T07:19:19;8.70;82.50
16287;DHT22;8251;53.568;10.018;2022-11-28T07:21:48;8.70;82.10
16287;DHT22;8251;53.568;10.018;2022-11-28T07:24:17;8.60;82.10
16287;DHT22;8251;53.568;10.018;2022-11-28T07:26:44;8.50;82.20
16287;DHT22;8251;53.568;10.018;2022-11-28T07:29:13;8.60;82.40
16287;DHT22;8251;53.568;10.018;2022-11-28T07:31:41;8.60;82.50
16287;DHT22;8251;53.568;10.018;2022-11-28T07:34:09;8.60;82.30
16287;DHT22;8251;53.568;10.018;2022-11-28T07:36:36;8.60;82.30
16287;DHT22;8251;53.568;10.018;2022-11-28T07:39:06;8.50;82.30
16287;DHT22;8251;53.568;10.018;2022-11-28T07:41:35;8.50;82.50
16287;DHT22;8251;53.568;10.018;2022-11-28T07:44:03;8.50;82.50
16287;DHT22;8251;53.568;10.018;2022-11-28T07:46:31;8.60;82.50
16287;DHT22;8251;53.568;10.018;2022-11-28T07:48:59;8.50;82.50
16287;DHT22;8251;53.568;10.018;2022-11-28T07:51:28;8.50;82.30
16287;DHT22;8251;53.568;10.018;2022-11-28T07:53:56;8.50;82.30
16287;DHT22;8251;53.568;10.018;2022-11-28T07:56:27;8.40;82.50
16287;DHT22;8251;53.568;10.018;2022-11-28T07:58:55;8.50;82.50
16287;DHT22;8251;53.568;10.018;2022-11-28T08:01:24;8.60;82.70
16287;DHT22;8251;53.568;10.018;2022-11-28T08:03:51;8.60;82.60
16287;DHT22;8251;53.568;10.018;2022-11-28T08:06:21;8.60;82.50
16287;DHT22;8251;53.568;10.018;2022-11-28T08:08:48;8.60;82.20
16287;DHT22;8251;53.568;10.018;2022-11-28T08:11:16;8.70;82.20
16287;DHT22;8251;53.568;10.018;2022-11-28T08:13:44;8.70;81.90
16287;DHT22;8251;53.568;10.018;2022-11-28T08:16:16;8.70;82.00
16287;DHT22;8251;53.568;10.018;2022-11-28T08:18:43;8.70;81.80
16287;DHT22;8251;53.568;10.018;2022-11-28T08:21:12;8.70;81.60
16287;DHT22;8251;53.568;10.018;2022-11-28T08:23:41;8.80;81.70
16287;DHT22;8251;53.568;10.018;2022-11-28T08:26:10;8.80;81.70
16287;DHT22;8251;53.568;10.018;2022-11-28T08:28:38;8.80;81.80
16287;DHT22;8251;53.568;10.018;2022-11-28T08:31:09;8.80;81.90
16287;DHT22;8251;53.568;10.018;2022-11-28T08:33:38;8.80;81.80
16287;DHT22;8251;53.568;10.018;2022-11-28T08:36:06;8.90;81.30
16287;DHT22;8251;53.568;10.018;2022-11-28T08:38:33;8.90;81.50
16287;DHT22;8251;53.568;10.018;2022-11-28T08:41:02;8.90;81.50
16287;DHT22;8251;53.568;10.018;2022-11-28T08:43:29;9.00;80.90
16287;DHT22;8251;53.568;10.018;2022-11-28T08:45:56;9.00;80.80
16287;DHT22;8251;53.568;10.018;2022-11-28T08:48:24;9.00;80.90
16287;DHT22;8251;53.568;10.018;2022-11-28T08:50:53;9.00;81.00
16287;DHT22;8251;53.568;10.018;2022-11-28T08:53:21;9.00;81.10
16287;DHT22;8251;53.568;10.018;2022-11-28T08:55:48;9.00;80.60
16287;DHT22;8251;53.568;10.018;2022-11-28T08:58:15;9.10;80.50
16287;DHT22;8251;53.568;10.018;2022-11-28T09:00:42;9.00;80.30
16287;DHT22;8251;53.568;10.018;2022-11-28T09:03:13;8.90;80.50
16287;DHT22;8251;53.568;10.018;2022-11-28T09:05:40;8.90;80.70
16287;DHT22;8251;53.568;10.018;2022-11-28T09:08:11;8.90;80.90
16287;DHT22;8251;53.568;10.018;2022-11-28T09:10:40;8.90;80.70
16287;DHT22;8251;53.568;10.018;2022-11-28T09:13:07;8.90;81.00
16287;DHT22;8251;53.568;10.018;2022-11-28T09:15:38;8.90;81.10
16287;DHT22;8251;53.568;10.018;2022-11-28T09:18:05;9.00;81.30
16287;DHT22;8251;53.568;10.018;2022-11-28T09:20:32;9.00;80.90
16287;DHT22;8251;53.568;10.018;2022-11-28T09:23:00;8.90;80.70
16287;DHT22;8251;53.568;10.018;2022-11-28T09:25:34;9.00;80.70
16287;DHT22;8251;53.568;10.018;2022-11-28T09:28:11;8.90;80.70
16287;DHT22;8251;53.568;10.018;2022-11-28T09:30:38;8.90;80.70
16287;DHT22;8251;53.568;10.018;2022-11-28T09:33:05;8.90;80.50
16287;DHT22;8251;53.568;10.018;2022-11-28T09:35:33;8.90;80.50
16287;DHT22;8251;53.568;10.018;2022-11-28T09:38:00;8.90;80.60
16287;DHT22;8251;53.568;10.018;2022-11-28T09:40:34;8.90;80.60
16287;DHT22;8251;53.568;10.018;2022-11-28T09:43:02;8.90;80.70
16287;DHT22;8251;53.568;10.018;2022-11-28T09:45:30;8.90;80.70
16287;DHT22;8251;53.568;10.018;2022-11-28T09:48:05;8.90;80.50
16287;DHT22;8251;53.568;10.018;2022-11-28T09:50:39;8.90;80.40
16287;DHT22;8251;53.568;10.018;2022-11-28T09:53:15;8.90;80.90
16287;DHT22;8251;53.568;10.018;2022-11-28T09:55:49;9.00;80.80
16287;DHT22;8251;53.568;10.018;2022-11-28T09:58:25;9.00;80.80
16287;DHT22;8251;53.568;10.018;2022-11-28T10:00:58;9.10;80.60
16287;DHT22;8251;53.568;10.018;2022-11-28T10:03:35;9.10;80.40
16287;DHT22;8251;53.568;10.018;2022-11-28T10:30:15;7.80;83.30
16287;DHT22;8251;53.568;10.018;2022-11-28T10:32:47;9.00;81.10
16287;DHT22;8251;53.568;10.018;2022-11-28T10:35:24;9.10;80.50
16287;DHT22;8251;53.568;10.018;2022-11-28T10:37:52;9.20;79.20
16287;DHT22;8251;53.568;10.018;2022-11-28T10:40:25;9.20;79.10
16287;DHT22;8251;53.568;10.018;2022-11-28T10:42:57;9.10;78.80
16287;DHT22;8251;53.568;10.018;2022-11-28T10:45:32;9.10;79.20
16287;DHT22;8251;53.568;10.018;2022-11-28T10:48:10;9.10;79.30
16287;DHT22;8251;53.568;10.018;2022-11-28T10:50:44;9.10;79.30
16287;DHT22;8251;53.568;10.018;2022-11-28T10:53:23;9.10;79.50
16287;DHT22;8251;53.568;10.018;2022-11-28T10:56:02;9.10;79.20
16287;DHT22;8251;53.568;10.018;2022-11-28T10:58:34;9.10;79.40
16287;DHT22;8251;53.568;10.018;2022-11-28T11:01:10;9.10;79.60
16287;DHT22;8251;53.568;10.018;2022-11-28T11:03:38;9.10;79.50
16287;DHT22;8251;53.568;10.018;2022-11-28T11:06:06;9.10;79.60
16287;DHT22;8251;53.568;10.018;2022-11-28T11:08:35;9.10;79.20
16287;DHT22;8251;53.568;10.018;2022-11-28T11:11:05;9.10;78.80
16287;DHT22;8251;53.568;10.018;2022-11-28T11:16:22;9.00;79.00
16287;DHT22;8251;53.568;10.018;2022-11-28T11:18:52;8.90;79.00
16287;DHT22;8251;53.568;10.018;2022-11-28T11:21:21;8.90;79.30
16287;DHT22;8251;53.568;10.018;2022-11-28T11:23:49;9.00;79.60
16287;DHT22;8251;53.568;10.018;2022-11-28T11:26:22;9.00;79.30
16287;DHT22;8251;53.568;10.018;2022-11-28T11:28:50;9.00;79.80
16287;DHT22;8251;53.568;10.018;2022-11-28T11:31:23;9.00;79.80
16287;DHT22;8251;53.568;10.018;2022-11-28T11:33:52;9.00;80.10
16287;DHT22;8251;53.568;10.018;2022-11-28T11:36:27;9.00;80.50
16287;DHT22;8251;53.568;10.018;2022-11-28T11:39:06;9.00;80.90
16287;DHT22;8251;53.568;10.018;2022-11-28T11:41:33;8.90;81.40
16287;DHT22;8251;53.568;10.018;2022-11-28T11:44:30;8.90;81.70
16287;DHT22;8251;53.568;10.018;2022-11-28T11:47:01;8.90;82.30
16287;DHT22;8251;53.568;10.018;2022-11-28T11:49:31;8.80;83.10
16287;DHT22;8251;53.568;10.018;2022-11-28T11:52:01;8.90;82.30
16287;DHT22;8251;53.568;10.018;2022-11-28T11:54:28;8.80;82.60
16287;DHT22;8251;53.568;10.018;2022-11-28T11:56:56;8.80;82.70
16287;DHT22;8251;53.568;10.018;2022-11-28T11:59:28;8.80;83.10
16287;DHT22;8251;53.568;10.018;2022-11-28T12:02:14;8.90;83.10
16287;DHT22;8251;53.568;10.018;2022-11-28T12:04:49;8.80;82.30
16287;DHT22;8251;53.568;10.018;2022-11-28T12:07:22;8.90;83.80
16287;DHT22;8251;53.568;10.018;2022-11-28T12:09:52;8.70;83.30
16287;DHT22;8251;53.568;10.018;2022-11-28T12:12:23;8.70;83.60
16287;DHT22;8251;53.568;10.018;2022-11-28T12:14:51;8.70;83.60
16287;DHT22;8251;53.568;10.018;2022-11-28T12:17:31;8.60;83.50
16287;DHT22;8251;53.568;10.018;2022-11-28T12:20:14;8.60;84.00
16287;DHT22;8251;53.568;10.018;2022-11-28T12:22:51;8.70;84.40
16287;DHT22;8251;53.568;10.018;2022-11-28T12:25:26;8.70;84.30
16287;DHT22;8251;53.568;10.018;2022-11-28T12:28:05;8.70;84.40
16287;DHT22;8251;53.568;10.018;2022-11-28T12:30:49;8.60;84.40
16287;DHT22;8251;53.568;10.018;2022-11-28T12:33:34;8.60;84.60
16287;DHT22;8251;53.568;10.018;2022-11-28T12:36:12;8.60;84.80
16287;DHT22;8251;53.568;10.018;2022-11-28T12:38:57;8.50;85.30
16287;DHT22;8251;53.568;10.018;2022-11-28T12:41:46;8.50;85.20
16287;DHT22;8251;53.568;10.018;2022-11-28T12:44:24;8.50;85.80
16287;DHT22;8251;53.568;10.018;2022-11-28T12:47:01;8.50;86.00
16287;DHT22;8251;53.568;10.018;2022-11-28T12:49:36;8.40;86.30
16287;DHT22;8251;53.568;10.018;2022-11-28T12:52:16;8.50;86.60
16287;DHT22;8251;53.568;10.018;2022-11-28T12:54:57;8.50;86.80
16287;DHT22;8251;53.568;10.018;2022-11-28T12:57:31;8.60;87.10
16287;DHT22;8251;53.568;10.018;2022-11-28T13:00:03;8.50;86.70
16287;DHT22;8251;53.568;10.018;2022-11-28T13:02:46;8.60;86.70
16287;DHT22;8251;53.568;10.018;2022-11-28T13:05:32;8.50;86.90
16287;DHT22;8251;53.568;10.018;2022-11-28T13:08:28;8.40;86.90
16287;DHT22;8251;53.568;10.018;2022-11-28T13:11:18;8.40;87.00
16287;DHT22;8251;53.568;10.018;2022-11-28T13:13:57;8.40;86.90
16287;DHT22;8251;53.568;10.018;2022-11-28T13:16:41;8.40;87.40
16287;DHT22;8251;53.568;10.018;2022-11-28T13:19:25;8.50;87.50
16287;DHT22;8251;53.568;10.018;2022-11-28T13:22:00;8.50;87.30
16287;DHT22;8251;53.568;10.018;2022-11-28T13:24:34;8.50;87.70
16287;DHT22;8251;53.568;10.018;2022-11-28T13:27:08;8.50;87.70
16287;DHT22;8251;53.568;10.018;2022-11-28T13:29:47;8.40;87.70
16287;DHT22;8251;53.568;10.018;2022-11-28T13:32:24;8.40;88.00
16287;DHT22;8251;53.568;10.018;2022-11-28T13:34:57;8.50;87.80
16287;DHT22;8251;53.568;10.018;2022-11-28T13:37:34;8.50;87.80
16287;DHT22;8251;53.568;10.018;2022-11-28T13:40:12;8.50;87.70
16287;DHT22;8251;53.568;10.018;2022-11-28T13:42:54;8.50;87.80
16287;DHT22;8251;53.568;10.018;2022-11-28T13:45:27;8.50;88.50
16287;DHT22;8251;53.568;10.018;2022-11-28T13:47:57;8.40;87.70
16287;DHT22;8251;53.568;10.018;2022-11-28T13:50:39;8.40;87.70
16287;DHT22;8251;53.568;10.018;2022-11-28T13:53:22;8.40;87.50
16287;DHT22;8251;53.568;10.018;2022-11-28T13:55:51;8.30;87.50
16287;DHT22;8251;53.568;10.018;2022-11-28T13:58:24;8.30;87.90
16287;DHT22;8251;53.568;10.018;2022-11-28T14:01:05;8.30;87.80
16287;DHT22;8251;53.568;10.018;2022-11-28T14:03:35;8.30;88.40
16287;DHT22;8251;53.568;10.018;2022-11-28T14:06:09;8.30;87.50
16287;DHT22;8251;53.568;10.018;2022-11-28T14:08:41;8.20;87.60
16287;DHT22;8251;53.568;10.018;2022-11-28T14:11:24;8.30;87.70
16287;DHT22;8251;53.568;10.018;2022-11-28T14:14:09;8.30;87.80
16287;DHT22;8251;53.568;10.018;2022-11-28T14:16:50;8.20;88.00
16287;DHT22;8251;53.568;10.018;2022-11-28T14:19:30;8.20;88.10
16287;DHT22;8251;53.568;10.018;2022-11-28T14:22:23;8.20;88.20
16287;DHT22;8251;53.568;10.018;2022-11-28T14:24:58;8.30;88.10
16287;DHT22;8251;53.568;10.018;2022-11-28T14:27:31;8.30;88.00
16287;DHT22;8251;53.568;10.018;2022-11-28T14:29:59;8.50;88.10
16287;DHT22;8251;53.568;10.018;2022-11-28T14:32:31;8.40;87.60
16287;DHT22;8251;53.568;10.018;2022-11-28T14:34:59;8.30;87.50
16287;DHT22;8251;53.568;10.018;2022-11-28T14:37:50;8.30;87.40
16287;DHT22;8251;53.568;10.018;2022-11-28T14:43:32;8.30;87.60
16287;DHT22;8251;53.568;10.018;2022-11-28T14:46:32;8.30;87.60
16287;DHT22;8251;53.568;10.018;2022-11-28T14:49:17;8.30;87.80
16287;DHT22;8251;53.568;10.018;2022-11-28T14:52:04;8.30;88.00
16287;DHT22;8251;53.568;10.018;2022-11-28T14:54:32;8.30;87.70
16287;DHT22;8251;53.568;10.018;2022-11-28T14:57:14;8.30;87.90
16287;DHT22;8251;53.568;10.018;2022-11-28T14:59:58;8.30;87.60
16287;DHT22;8251;53.568;10.018;2022-11-28T15:02:48;8.10;88.00
16287;DHT22;8251;53.568;10.018;2022-11-28T15:05:33;8.10;88.30
16287;DHT22;8251;53.568;10.018;2022-11-28T15:14:24;8.20;89.00
16287;DHT22;8251;53.568;10.018;2022-11-28T15:16:55;8.20;88.90
16287;DHT22;8251;53.568;10.018;2022-11-28T15:19:25;8.20;88.60
16287;DHT22;8251;53.568;10.018;2022-11-28T15:21:54;8.10;88.40
16287;DHT22;8251;53.568;10.018;2022-11-28T15:24:26;8.10;88.80
16287;DHT22;8251;53.568;10.018;2022-11-28T15:26:56;8.20;89.00
16287;DHT22;8251;53.568;10.018;2022-11-28T15:29:25;8.20;88.50
16287;DHT22;8251;53.568;10.018;2022-11-28T15:31:56;8.20;88.50
16287;DHT22;8251;53.568;10.018;2022-11-28T15:34:27;8.20;88.60
16287;DHT22;8251;53.568;10.018;2022-11-28T15:36:59;8.20;88.80
16287;DHT22;8251;53.568;10.018;2022-11-28T15:39:34;8.20;88.70
16287;DHT22;8251;53.568;10.018;2022-11-28T15:42:19;8.10;88.60
16287;DHT22;8251;53.568;10.018;2022-11-28T15:44:54;8.20;88.70
16287;DHT22;8251;53.568;10.018;2022-11-28T15:47:23;8.20;88.80
16287;DHT22;8251;53.568;10.018;2022-11-28T15:50:01;8.30;88.80
16287;DHT22;8251;53.568;10.018;2022-11-28T15:52:28;8.30;88.60
16287;DHT22;8251;53.568;10.018;2022-11-28T15:54:56;8.30;88.60
16287;DHT22;8251;53.568;10.018;2022-11-28T15:57:27;8.30;88.60
16287;DHT22;8251;53.568;10.018;2022-11-28T16:00:02;8.30;88.20
16287;DHT22;8251;53.568;10.018;2022-11-28T16:02:34;8.30;88.40
16287;DHT22;8251;53.568;10.018;2022-11-28T16:05:05;8.40;88.50
16287;DHT22;8251;53.568;10.018;2022-11-28T16:07:34;8.40;88.20
16287;DHT22;8251;53.568;10.018;2022-11-28T16:10:05;8.40;88.10
16287;DHT22;8251;53.568;10.018;2022-11-28T16:12:33;8.50;88.40
16287;DHT22;8251;53.568;10.018;2022-11-28T16:15:00;8.50;87.90
16287;DHT22;8251;53.568;10.018;2022-11-28T16:17:30;8.50;87.90
16287;DHT22;8251;53.568;10.018;2022-11-28T16:19:59;8.50;88.10
16287;DHT22;8251;53.568;10.018;2022-11-28T16:22:31;8.50;87.90
16287;DHT22;8251;53.568;10.018;2022-11-28T16:25:10;8.50;87.70
16287;DHT22;8251;53.568;10.018;2022-11-28T16:27:39;8.50;87.60
16287;DHT22;8251;53.568;10.018;2022-11-28T16:30:26;8.50;87.60
16287;DHT22;8251;53.568;10.018;2022-11-28T16:32:54;8.50;87.70
16287;DHT22;8251;53.568;10.018;2022-11-28T16:35:27;8.50;87.90
16287;DHT22;8251;53.568;10.018;2022-11-28T16:38:03;8.50;87.50
16287;DHT22;8251;53.568;10.018;2022-11-28T16:40:31;8.50;87.60
16287;DHT22;8251;53.568;10.018;2022-11-28T16:42:58;8.50;87.70
16287;DHT22;8251;53.568;10.018;2022-11-28T16:45:28;8.50;87.60
16287;DHT22;8251;53.568;10.018;2022-11-28T16:48:03;8.40;87.30
16287;DHT22;8251;53.568;10.018;2022-11-28T16:50:35;8.40;87.50
16287;DHT22;8251;53.568;10.018;2022-11-28T16:53:03;8.40;87.30
16287;DHT22;8251;53.568;10.018;2022-11-28T16:55:37;8.40;87.50